Time;durP1;ratioP1;P1;durP2;ratioP2;P2;SDS_P1;SDS_P2;PMS_P1;PMS_P2;Temp;Humidity;BMP_temperature;BMP_pressure;BME280_temperature;BME280_humidity;BME280_pressure;Samples;Min_cycle;Max_cycle;Signal;HPM_P1;HPM_P2
2021/12/13 00:01:33;;;;;;;15.73;11.88;;;;;;;9.76;100.00;102407.25;4803704;29;20062;-49
2021/12/13 00:04:31;;;;;;;17.73;13.13;;;;;;;9.76;100.00;102404.53;4785048;29;20139;-52
2021/12/13 00:07:25;;;;;;;14.63;11.82;;;;;;;9.76;100.00;102407.25;4806903;29;20112;-48
2021/12/13 00:10:17;;;;;;;12.48;9.40;;;;;;;9.77;100.00;102403.50;4879168;29;20468;-48
2021/12/13 00:13:10;;;;;;;15.65;12.02;;;;;;;9.76;100.00;102401.81;4879298;29;20056;-52
2021/12/13 00:16:02;;;;;;;15.88;11.20;;;;;;;9.78;100.00;102399.72;4875890;29;20061;-50
2021/12/13 00:18:56;;;;;;;14.45;10.00;;;;;;;9.77;100.00;102395.34;4876570;29;20454;-52
2021/12/13 00:21:56;;;;;;;15.73;11.82;;;;;;;9.77;100.00;102403.50;4878731;29;20500;-49
2021/12/13 00:24:46;;;;;;;16.90;12.30;;;;;;;9.77;100.00;102400.78;4876689;29;20083;-51
2021/12/13 00:27:59;;;;;;;15.15;12.25;;;;;;;9.77;100.00;102406.22;4874593;29;20057;-48
2021/12/13 00:31:06;;;;;;;14.23;11.32;;;;;;;9.77;100.00;102413.56;4863754;29;20101;-51
2021/12/13 00:34:27;;;;;;;14.68;11.57;;;;;;;9.76;100.00;102415.44;4878883;29;20060;-48
2021/12/13 00:37:21;;;;;;;15.82;12.63;;;;;;;9.76;100.00;102420.88;4878737;29;20045;-52
2021/12/13 00:40:27;;;;;;;18.60;11.93;;;;;;;9.78;100.00;102426.94;4878721;29;20057;-49
2021/12/13 00:43:22;;;;;;;14.93;10.07;;;;;;;9.77;100.00;102428.00;4878154;29;20100;-48
2021/12/13 00:46:12;;;;;;;13.90;9.93;;;;;;;9.77;100.00;102428.00;4878424;29;20049;-49
2021/12/13 00:49:02;;;;;;;14.05;10.15;;;;;;;9.77;100.00;102433.44;4862840;29;20560;-51
2021/12/13 00:51:56;;;;;;;17.15;9.73;;;;;;;9.77;100.00;102428.00;4878733;29;20057;-51
2021/12/13 00:54:44;;;;;;;15.10;9.20;;;;;;;9.78;100.00;102431.53;4878534;29;20504;-51
2021/12/13 00:57:44;;;;;;;12.02;9.45;;;;;;;9.77;100.00;102428.00;4878204;29;20053;-51
2021/12/13 01:01:02;;;;;;;14.80;9.93;;;;;;;9.77;100.00;102428.00;4878830;29;20045;-49
2021/12/13 01:03:51;;;;;;;12.65;7.53;;;;;;;9.77;100.00;102433.44;4857933;29;20057;-50
2021/12/13 01:07:15;;;;;;;13.57;8.63;;;;;;;9.77;100.00;102433.44;4857624;29;20056;-51
2021/12/13 01:10:14;;;;;;;13.20;9.30;;;;;;;9.76;100.00;102431.75;4858023;29;20064;-49
2021/12/13 01:13:05;;;;;;;13.20;8.88;;;;;;;9.74;100.00;102431.19;4857929;29;20053;-49
2021/12/13 01:16:31;;;;;;;14.18;9.38;;;;;;;9.76;100.00;102447.25;4858016;29;20209;-53
2021/12/13 01:19:30;;;;;;;10.77;6.30;;;;;;;9.76;100.00;102442.66;4858335;29;20129;-49
2021/12/13 01:22:44;;;;;;;9.38;6.40;;;;;;;9.77;100.00;102448.94;4849042;29;20117;-50
2021/12/13 01:25:46;;;;;;;12.95;7.57;;;;;;;9.76;100.00;102448.09;4861467;29;20053;-50
2021/12/13 01:28:38;;;;;;;11.30;7.80;;;;;;;9.76;100.00;102442.66;4860915;29;20060;-49
2021/12/13 01:31:36;;;;;;;11.02;7.15;;;;;;;9.77;100.00;102447.06;4861350;29;20054;-49
2021/12/13 01:34:25;;;;;;;10.48;7.55;;;;;;;9.75;100.00;102440.16;4861671;29;20572;-49
2021/12/13 01:37:15;;;;;;;13.68;7.90;;;;;;;9.75;100.00;102451.06;4848367;29;20477;-50
2021/12/13 01:40:11;;;;;;;11.38;7.20;;;;;;;9.75;100.00;102454.59;4858718;29;20505;-51
2021/12/13 01:43:05;;;;;;;8.55;6.03;;;;;;;9.73;100.00;102454.00;4862075;29;20420;-46
2021/12/13 01:45:54;;;;;;;9.88;7.13;;;;;;;9.72;100.00;102457.78;4863702;29;20061;-52
2021/12/13 01:48:44;;;;;;;11.05;7.18;;;;;;;9.73;100.00;102462.16;4878631;29;20045;-49
2021/12/13 01:51:33;;;;;;;11.05;7.68;;;;;;;9.73;100.00;102459.44;4879437;29;20053;-50
2021/12/13 01:54:22;;;;;;;12.73;7.20;;;;;;;9.73;100.00;102462.16;4881994;29;20053;-45
2021/12/13 02:00:17;;;;;;;12.75;8.38;;;;;;;9.74;100.00;102458.41;4881209;29;20125;-48
2021/12/13 02:03:04;;;;;;;14.07;6.95;;;;;;;9.74;100.00;102461.13;4881265;29;20049;-49
2021/12/13 02:05:52;;;;;;;13.57;8.27;;;;;;;9.72;100.00;102457.78;4881428;29;20527;-47
2021/12/13 02:08:40;;;;;;;15.05;9.07;;;;;;;9.73;100.00;102461.31;4878863;29;20057;-49
2021/12/13 02:11:29;;;;;;;11.82;7.22;;;;;;;9.72;100.00;102460.50;4881052;29;20068;-49
2021/12/13 02:14:24;;;;;;;11.07;7.70;;;;;;;9.70;100.00;102465.34;4878289;29;20057;-48
2021/12/13 02:17:16;;;;;;;12.95;8.25;;;;;;;9.69;100.00;102460.94;4846202;29;20086;-49
2021/12/13 02:20:13;;;;;;;15.27;9.95;;;;;;;9.68;100.00;102467.44;4866675;29;20064;-49
2021/12/13 02:23:02;;;;;;;14.10;10.65;;;;;;;9.66;100.00;102457.81;4881290;29;20057;-50
2021/12/13 02:25:55;;;;;;;20.10;10.40;;;;;;;9.66;100.00;102469.53;4878821;29;20053;-49
2021/12/13 02:28:47;;;;;;;16.13;10.00;;;;;;;9.66;100.00;102474.97;4878372;29;20057;-48
2021/12/13 02:31:39;;;;;;;14.20;9.85;;;;;;;9.70;100.00;102469.94;4880797;29;20456;-48
2021/12/13 02:34:30;;;;;;;14.63;9.82;;;;;;;9.68;100.00;102462.00;4881071;29;20061;-48
2021/12/13 02:37:18;;;;;;;13.68;9.63;;;;;;;9.70;100.00;102456.34;4862356;29;20396;-45
2021/12/13 02:40:06;;;;;;;13.02;8.40;;;;;;;9.69;100.00;102457.38;4848406;29;20057;-47
2021/12/13 02:42:54;;;;;;;11.63;8.30;;;;;;;9.74;100.00;102457.53;4877441;29;20056;-46
2021/12/13 02:45:46;;;;;;;14.15;9.40;;;;;;;9.72;100.00;102462.41;4879635;29;20045;-51
2021/12/13 02:48:45;;;;;;;14.88;10.00;;;;;;;9.72;100.00;102459.69;4880556;29;20049;-52
2021/12/13 02:51:44;;;;;;;16.70;10.63;;;;;;;9.70;100.00;102465.34;4880332;29;20499;-48
2021/12/13 02:54:48;;;;;;;14.77;10.00;;;;;;;9.70;100.00;102454.44;4875118;29;20053;-50
2021/12/13 02:57:40;;;;;;;12.35;8.88;;;;;;;9.71;100.00;102456.09;4880522;29;20068;-47
2021/12/13 03:00:56;;;;;;;15.52;9.57;;;;;;;9.73;100.00;102456.72;4879943;29;20052;-48
2021/12/13 03:03:47;;;;;;;15.30;10.52;;;;;;;9.72;100.00;102456.94;4880065;29;20525;-49
2021/12/13 03:06:41;;;;;;;16.85;10.35;;;;;;;9.69;100.00;102455.50;4880549;29;20052;-49
2021/12/13 03:09:30;;;;;;;13.23;8.75;;;;;;;9.71;100.00;102460.72;4880498;29;20060;-51
2021/12/13 03:12:19;;;;;;;14.25;9.57;;;;;;;9.69;100.00;102463.69;4879283;29;20518;-48
2021/12/13 03:15:11;;;;;;;14.45;9.68;;;;;;;9.69;100.00;102462.81;4880073;29;20132;-49
2021/12/13 03:18:02;;;;;;;12.68;8.82;;;;;;;9.68;100.00;102461.16;4880207;29;20052;-46
2021/12/13 03:21:12;;;;;;;15.60;9.85;;;;;;;9.70;100.00;102467.22;4880135;29;20065;-48
2021/12/13 03:24:19;;;;;;;17.23;11.00;;;;;;;9.70;100.00;102470.78;4876524;29;20068;-47
2021/12/13 03:27:44;;;;;;;13.80;9.88;;;;;;;9.76;100.00;102463.59;4880158;29;20057;-47
2021/12/13 03:30:41;;;;;;;15.63;10.32;;;;;;;9.74;100.00;102471.16;4879794;29;20056;-49
2021/12/13 03:33:37;;;;;;;16.50;11.27;;;;;;;9.71;100.00;102471.59;4878239;29;20053;-47
2021/12/13 03:36:57;;;;;;;16.45;11.93;;;;;;;9.68;100.00;102470.16;4876649;29;20045;-50
2021/12/13 03:39:58;;;;;;;13.07;9.45;;;;;;;9.68;100.00;102470.16;4876793;29;20069;-47
2021/12/13 03:42:51;;;;;;;14.35;10.75;;;;;;;9.68;100.00;102472.88;4860319;29;20053;-44
2021/12/13 03:45:47;;;;;;;17.25;12.80;;;;;;;9.66;100.00;102469.53;4878450;29;20061;-48
2021/12/13 03:48:36;;;;;;;14.88;10.85;;;;;;;9.65;100.00;102470.59;4879950;29;20045;-48
2021/12/13 03:51:33;;;;;;;17.25;9.93;;;;;;;9.67;100.00;102470.38;4879343;29;20068;-45
2021/12/13 03:54:21;;;;;;;15.50;11.30;;;;;;;9.65;100.00;102467.06;4879310;29;20060;-47
2021/12/13 03:57:10;;;;;;;14.38;10.00;;;;;;;9.66;100.00;102466.81;4876659;29;20068;-48
2021/12/13 03:59:58;;;;;;;18.05;12.90;;;;;;;9.63;100.00;102475.44;4879229;29;20057;-48
2021/12/13 04:02:46;;;;;;;16.50;12.02;;;;;;;9.63;100.00;102471.88;4879475;29;20453;-46
2021/12/13 04:05:34;;;;;;;19.15;11.05;;;;;;;9.62;100.00;102471.06;4879042;29;20128;-50
2021/12/13 04:08:23;;;;;;;16.30;12.60;;;;;;;9.62;100.00;102470.19;4879049;29;20109;-50
2021/12/13 04:11:11;;;;;;;13.40;10.25;;;;;;;9.64;100.00;102468.91;4879210;29;20049;-53
2021/12/13 04:14:08;;;;;;;15.80;12.60;;;;;;;9.63;100.00;102464.53;4879086;29;20120;-45
2021/12/13 04:17:22;;;;;;;16.58;11.73;;;;;;;9.62;100.00;102471.06;4878952;29;20053;-46
2021/12/13 04:20:05;;;;;;;13.85;10.10;;;;;;;9.64;100.00;102471.66;4878079;29;20425;-48
2021/12/13 04:22:56;;;;;;;14.63;9.98;;;;;;;9.64;100.00;102474.38;4879373;29;20125;-49
2021/12/13 04:25:45;;;;;;;16.02;11.52;;;;;;;9.64;100.00;102474.38;4878579;29;20052;-50
2021/12/13 04:28:41;;;;;;;13.10;9.68;;;;;;;9.64;100.00;102471.66;4879061;29;20460;-51
2021/12/13 04:31:37;;;;;;;14.30;10.73;;;;;;;9.65;100.00;102483.38;4879105;29;20045;-49
2021/12/13 04:34:27;;;;;;;16.33;11.00;;;;;;;9.64;100.00;102481.69;4877640;29;20207;-45
2021/12/13 04:37:40;;;;;;;15.05;10.90;;;;;;;9.62;100.00;102479.22;4878473;29;20049;-45
2021/12/13 04:40:29;;;;;;;;;;;;;;;9.64;100.00;102479.81;4879381;29;20052;-45
2021/12/13 04:43:19;;;;;;;17.10;12.18;;;;;;;9.63;100.00;102483.59;4878339;29;20335;-47
2021/12/13 04:46:09;;;;;;;15.75;11.95;;;;;;;9.62;100.00;102484.66;4878704;29;20049;-49
2021/12/13 04:48:59;;;;;;;18.52;13.25;;;;;;;9.60;100.00;102481.31;4878333;29;20120;-46
2021/12/13 04:51:57;;;;;;;18.50;12.82;;;;;;;9.59;100.00;102479.63;4879928;29;20112;-47
2021/12/13 04:54:51;;;;;;;17.90;13.65;;;;;;;9.57;100.00;102479.03;4879979;29;20057;-47
2021/12/13 04:57:39;;;;;;;16.92;13.27;;;;;;;9.56;100.00;102474.66;4882768;29;20097;-47
2021/12/13 05:00:35;;;;;;;14.55;10.02;;;;;;;9.59;100.00;102476.91;4864085;29;20101;-47
2021/12/13 05:03:28;;;;;;;16.58;12.73;;;;;;;9.58;100.00;102480.72;4874335;29;20049;-46
2021/12/13 05:06:19;;;;;;;15.20;10.63;;;;;;;9.59;100.00;102482.38;4882659;29;20060;-48
2021/12/13 05:09:11;;;;;;;16.25;12.38;;;;;;;9.57;100.00;102476.31;4882176;29;20072;-47
2021/12/13 05:12:13;;;;;;;18.15;13.00;;;;;;;9.56;100.00;102478.19;4882345;29;20049;-49
2021/12/13 05:15:06;;;;;;;15.82;11.25;;;;;;;9.57;100.00;102476.31;4882514;29;20216;-48
2021/12/13 05:17:55;;;;;;;18.15;12.50;;;;;;;9.57;100.00;102479.88;4882539;29;20049;-48
2021/12/13 05:20:43;;;;;;;15.75;11.98;;;;;;;9.57;100.00;102476.31;4881941;29;20060;-48
2021/12/13 05:23:33;;;;;;;17.02;11.75;;;;;;;9.56;100.00;102478.19;4879973;29;20141;-50
2021/12/13 05:26:46;;;;;;;11.65;7.60;;;;;;;9.63;100.00;102483.59;4882017;29;20461;-48
2021/12/13 05:29:41;;;;;;;18.30;14.05;;;;;;;9.60;100.00;102481.31;4867862;29;20056;-44
2021/12/13 05:32:34;;;;;;;18.92;13.65;;;;;;;9.52;100.00;102484.28;4881994;29;20136;-48
2021/12/13 05:35:37;;;;;;;19.45;13.95;;;;;;;9.47;100.00;102484.94;4865375;29;20049;-49
2021/12/13 05:38:34;;;;;;;17.98;13.80;;;;;;;9.44;100.00;102487.28;4879478;29;20113;-48
2021/12/13 05:41:25;;;;;;;17.75;13.38;;;;;;;9.44;100.00;102482.69;4879335;29;20060;-48
2021/12/13 05:44:13;;;;;;;15.95;11.73;;;;;;;9.46;100.00;102479.75;4881095;29;20619;-45
2021/12/13 05:47:05;;;;;;;14.38;8.85;;;;;;;9.53;100.00;102485.97;4879964;29;20053;-46
2021/12/13 05:49:54;;;;;;;11.27;8.25;;;;;;;9.65;100.00;102484.22;4879545;29;20060;-48
2021/12/13 05:52:41;;;;;;;10.70;7.63;;;;;;;9.68;100.00;102483.75;4878116;29;20053;-48
2021/12/13 05:55:29;;;;;;;11.77;8.25;;;;;;;9.71;100.00;102488.75;4881544;29;20053;-50
2021/12/13 05:58:41;;;;;;;15.23;8.88;;;;;;;9.79;100.00;102493.94;4878628;29;20476;-48
2021/12/13 06:01:54;;;;;;;15.57;9.23;;;;;;;9.76;100.00;102491.66;4878714;29;20191;-49
2021/12/13 06:04:54;;;;;;;16.90;10.75;;;;;;;9.71;100.00;102487.94;4862384;29;20477;-46
2021/12/13 06:07:42;;;;;;;14.68;11.10;;;;;;;9.73;100.00;102494.00;4860469;29;20153;-48
2021/12/13 06:10:49;;;;;;;14.68;11.02;;;;;;;9.68;100.00;102491.09;4853938;29;20061;-49
2021/12/13 06:13:42;;;;;;;16.02;11.32;;;;;;;9.67;100.00;102487.56;4881100;29;20059;-49
2021/12/13 06:16:57;;;;;;;14.75;10.07;;;;;;;9.69;100.00;102490.91;4879116;29;20053;-49
2021/12/13 06:20:05;;;;;;;16.45;10.00;;;;;;;9.63;100.00;102494.47;4805692;29;20059;-48
2021/12/13 06:23:22;;;;;;;9.88;7.25;;;;;;;9.74;100.00;102504.66;4793343;29;20100;-50
2021/12/13 06:26:12;;;;;;;12.57;8.43;;;;;;;9.68;100.00;102500.09;4785421;29;20051;-49
2021/12/13 06:29:03;;;;;;;6.38;4.40;;;;;;;9.74;100.00;102506.53;4792750;29;20055;-50
2021/12/13 06:31:51;;;;;;;13.10;9.05;;;;;;;9.68;100.00;102504.72;4139402;29;10000386;-52
2021/12/13 06:34:39;;;;;;;13.65;9.38;;;;;;;9.66;100.00;102514.97;4803486;29;20091;-51
2021/12/13 06:37:31;;;;;;;17.17;10.80;;;;;;;9.60;100.00;102508.53;4793003;29;20055;-53
2021/12/13 06:40:27;;;;;;;11.63;8.02;;;;;;;9.61;100.00;102512.91;4784992;30;20059;-48
2021/12/13 06:43:38;;;;;;;12.90;8.45;;;;;;;9.66;100.00;102509.53;4785810;29;20051;-49
2021/12/13 06:46:43;;;;;;;12.05;8.18;;;;;;;9.62;100.00;102511.88;4785141;30;20138;-48
2021/12/13 06:49:22;;;;;;;13.00;9.05;;;;;;;9.63;100.00;102516.25;4770308;30;20059;-48
2021/12/13 06:52:12;;;;;;;15.02;9.70;;;;;;;9.58;100.00;102518.81;4784083;29;20059;-50
2021/12/13 06:55:07;;;;;;;13.85;9.57;;;;;;;9.58;100.00;102521.53;4787904;29;20546;-47
2021/12/13 06:58:00;;;;;;;15.43;7.55;;;;;;;9.60;100.00;102524.88;4878691;29;20045;-49
2021/12/13 07:00:51;;;;;;;12.38;8.38;;;;;;;9.60;100.00;102522.16;4876934;29;20053;-50
2021/12/13 07:03:39;;;;;;;12.32;7.53;;;;;;;9.58;100.00;102526.97;4862015;29;20543;-52
2021/12/13 07:06:27;;;;;;;10.35;7.15;;;;;;;9.59;100.00;102525.91;4845591;29;20057;-50
2021/12/13 07:09:16;;;;;;;13.10;8.60;;;;;;;9.56;100.00;102527.19;4861537;29;20493;-53
2021/12/13 07:12:14;;;;;;;12.07;6.70;;;;;;;9.58;100.00;102535.97;4867257;29;20433;-51
2021/12/13 07:14:50;;;;;;;11.55;7.63;;;;;;;9.58;100.00;102538.69;4863121;29;20579;-51
2021/12/13 07:17:37;;;;;;;11.95;7.78;;;;;;;9.57;100.00;102536.16;4865035;29;20049;-52
2021/12/13 07:20:25;;;;;;;10.48;7.07;;;;;;;9.56;100.00;102540.78;4863187;29;20048;-49
2021/12/13 07:23:13;;;;;;;10.82;6.70;;;;;;;9.58;100.00;102543.31;4863374;29;20051;-51
2021/12/13 07:26:21;;;;;;;9.88;6.38;;;;;;;9.67;100.00;102539.28;4872235;29;20053;-48
2021/12/13 07:29:24;;;;;;;12.32;7.53;;;;;;;9.81;100.00;102537.25;4857786;29;20057;-47
2021/12/13 07:32:24;;;;;;;11.20;7.10;;;;;;;9.73;100.00;102545.72;4860771;29;20402;-48
2021/12/13 07:35:24;;;;;;;12.63;7.05;;;;;;;9.70;100.00;102546.97;4860845;29;20419;-48
2021/12/13 07:38:17;;;;;;;10.20;5.88;;;;;;;9.68;100.00;102546.38;4877883;29;20548;-49
2021/12/13 07:41:08;;;;;;;13.05;6.78;;;;;;;9.76;100.00;102550.69;4865444;29;20557;-45
2021/12/13 07:43:56;;;;;;;12.82;5.82;;;;;;;9.75;100.00;102554.50;4865220;29;20071;-49
2021/12/13 07:47:03;;;;;;;11.55;7.03;;;;;;;9.73;100.00;102557.41;4852317;29;20053;-49
2021/12/13 07:49:58;;;;;;;10.43;5.07;;;;;;;9.76;100.00;102564.31;4879242;29;20685;-49
2021/12/13 07:52:55;;;;;;;8.48;5.00;;;;;;;9.77;100.00;102566.81;4876965;29;20041;-48
2021/12/13 07:55:47;;;;;;;9.85;5.70;;;;;;;9.76;100.00;102573.31;4878841;29;20492;-51
2021/12/13 07:58:42;;;;;;;14.05;8.20;;;;;;;9.70;100.00;102574.19;4879593;29;20105;-47
2021/12/13 08:01:34;;;;;;;11.02;4.97;;;;;;;9.67;100.00;102580.09;4878819;29;20092;-47
2021/12/13 08:04:27;;;;;;;10.15;6.05;;;;;;;9.75;100.00;102573.53;4878976;29;20069;-47
2021/12/13 08:07:22;;;;;;;9.75;6.53;;;;;;;9.78;100.00;102581.28;4878836;29;20412;-51
2021/12/13 08:10:23;;;;;;;8.43;4.60;;;;;;;9.78;100.00;102582.09;4850315;29;20057;-49
2021/12/13 08:13:20;;;;;;;11.23;5.32;;;;;;;9.84;100.00;102576.81;4856175;29;20549;-50
2021/12/13 08:16:09;;;;;;;10.63;5.78;;;;;;;9.80;100.00;102573.72;4860047;29;20054;-48
2021/12/13 08:19:06;;;;;;;10.70;6.00;;;;;;;9.84;100.00;102579.53;4871249;29;20056;-50
2021/12/13 08:21:59;;;;;;;9.75;3.70;;;;;;;9.90;100.00;102573.22;4878982;29;20527;-48
2021/12/13 08:24:51;;;;;;;9.90;5.90;;;;;;;10.01;100.00;102576.09;4865430;29;20048;-49
2021/12/13 08:27:48;;;;;;;6.25;3.72;;;;;;;9.96;100.00;102567.75;4878428;29;20100;-51
2021/12/13 08:30:49;;;;;;;10.90;5.57;;;;;;;9.97;100.00;102565.84;4879122;29;20048;-48
2021/12/13 08:33:41;;;;;;;7.85;4.00;;;;;;;9.96;100.00;102570.47;4878714;29;20049;-48
2021/12/13 08:36:25;;;;;;;13.25;9.10;;;;;;;9.82;100.00;102575.16;4877630;29;20049;-46
2021/12/13 08:39:31;;;;;;;12.40;8.73;;;;;;;9.66;100.00;102572.13;4864460;29;20413;-49
2021/12/13 08:42:22;;;;;;;14.20;9.00;;;;;;;9.55;100.00;102571.78;4878364;29;20523;-48
2021/12/13 08:45:31;;;;;;;10.63;7.75;;;;;;;9.53;100.00;102573.88;4851780;29;20072;-49
2021/12/13 08:48:21;;;;;;;12.23;6.45;;;;;;;9.73;100.00;102573.75;4864901;29;20053;-45
2021/12/13 08:51:09;;;;;;;14.40;5.85;;;;;;;9.78;100.00;102568.47;4864825;29;20492;-47
2021/12/13 08:54:05;;;;;;;11.88;7.07;;;;;;;9.84;100.00;102568.66;4864880;29;20057;-46
2021/12/13 08:56:53;;;;;;;12.52;6.65;;;;;;;9.88;100.00;102565.28;4878633;29;20064;-49
2021/12/13 08:59:53;;;;;;;10.68;6.95;;;;;;;9.83;100.00;102576.00;4878418;29;20053;-49
2021/12/13 09:02:48;;;;;;;13.05;5.55;;;;;;;9.93;100.00;102583.69;4876352;29;20059;-49
2021/12/13 09:05:38;;;;;;;;;;;;;;;9.86;100.00;102575.56;4878488;29;20068;-48
2021/12/13 09:08:40;;;;;;;8.85;5.78;;;;;;;9.80;100.00;102569.09;4876127;29;19923;-49
2021/12/13 09:11:38;;;;;;;9.85;5.47;;;;;;;9.93;100.00;102578.22;4876355;29;20053;-48
2021/12/13 09:14:35;;;;;;;16.05;6.30;;;;;;;9.87;100.00;102577.22;4875825;29;20065;-46
2021/12/13 09:17:44;;;;;;;10.35;4.93;;;;;;;9.96;100.00;102586.81;4865451;29;20041;-48
2021/12/13 09:20:49;;;;;;;9.45;5.68;;;;;;;9.91;100.00;102593.94;4862788;29;20560;-51
2021/12/13 09:23:49;;;;;;;9.82;6.25;;;;;;;9.90;100.00;102595.00;4878155;29;20488;-50
2021/12/13 09:26:41;;;;;;;10.15;7.20;;;;;;;9.77;100.00;102595.94;4859870;29;20504;-47
2021/12/13 09:29:29;;;;;;;7.93;4.07;;;;;;;9.71;100.00;102597.63;4857462;29;20129;-49
2021/12/13 09:32:17;;;;;;;7.50;4.22;;;;;;;9.71;100.00;102602.25;4859824;29;20053;-48
2021/12/13 09:35:41;;;;;;;10.82;5.05;;;;;;;9.82;100.00;102616.00;4867438;29;20057;-51
2021/12/13 09:38:33;;;;;;;9.27;5.25;;;;;;;9.86;100.00;102623.72;4859529;29;20128;-52
2021/12/13 09:41:30;;;;;;;8.27;4.72;;;;;;;9.82;100.00;102626.88;4861087;29;20061;-52
2021/12/13 09:44:33;;;;;;;9.23;3.70;;;;;;;9.89;100.00;102628.75;4859093;29;20069;-47
2021/12/13 09:47:30;;;;;;;6.57;3.58;;;;;;;9.92;100.00;102631.84;4848147;29;20053;-51
2021/12/13 09:50:22;;;;;;;8.25;3.60;;;;;;;10.07;100.00;102638.88;4860672;29;20528;-49
2021/12/13 09:53:10;;;;;;;10.18;5.43;;;;;;;10.22;100.00;102640.25;4860774;29;20060;-49
2021/12/13 09:56:00;;;;;;;10.88;5.35;;;;;;;10.10;100.00;102650.19;4853899;29;20060;-49
2021/12/13 09:58:55;;;;;;;9.48;5.32;;;;;;;10.00;100.00;102655.25;4860020;29;20045;-52
2021/12/13 10:01:45;;;;;;;8.80;5.45;;;;;;;9.94;100.00;102646.09;4848085;29;20046;-48
2021/12/13 10:04:40;;;;;;;8.60;4.63;;;;;;;9.99;100.00;102640.81;4859257;29;20080;-50
2021/12/13 10:07:31;;;;;;;9.27;6.30;;;;;;;9.78;100.00;102647.44;4859746;29;20057;-47
2021/12/13 10:10:37;;;;;;;9.57;6.65;;;;;;;9.66;100.00;102651.88;4844971;29;20313;-52
2021/12/13 10:13:29;;;;;;;8.90;5.72;;;;;;;9.60;100.00;102655.50;4860404;29;20052;-48
2021/12/13 10:16:26;;;;;;;7.32;4.75;;;;;;;9.65;100.00;102652.13;4871010;29;20041;-49
2021/12/13 10:19:19;;;;;;;7.70;4.93;;;;;;;9.87;100.00;102650.75;4881129;29;20068;-46
2021/12/13 10:22:10;;;;;;;9.70;4.85;;;;;;;9.88;100.00;102632.50;4880901;29;20110;-52
2021/12/13 10:25:10;;;;;;;5.95;3.90;;;;;;;9.96;100.00;102637.72;4880166;29;20437;-51
2021/12/13 10:27:58;;;;;;;9.20;4.53;;;;;;;10.12;100.00;102636.34;4881665;29;20392;-51
2021/12/13 10:30:58;;;;;;;9.35;4.88;;;;;;;10.09;100.00;102637.63;4880584;29;20097;-51
2021/12/13 10:33:46;;;;;;;9.00;5.18;;;;;;;10.06;100.00;102631.78;4862135;29;20484;-53
2021/12/13 10:36:37;;;;;;;7.68;4.65;;;;;;;10.16;100.00;102632.94;4862615;29;20060;-48
2021/12/13 10:39:30;;;;;;;8.15;5.03;;;;;;;10.13;100.00;102629.84;4861439;29;20117;-50
2021/12/13 10:42:35;;;;;;;9.60;5.15;;;;;;;10.17;100.00;102629.19;4878837;29;20049;-50
2021/12/13 10:45:30;;;;;;;8.77;5.68;;;;;;;9.94;100.00;102626.19;4879988;29;20057;-47
2021/12/13 10:48:05;;;;;;;9.50;5.75;;;;;;;9.78;100.00;102631.09;4878737;29;20056;-46
2021/12/13 10:51:30;;;;;;;9.98;5.97;;;;;;;9.70;100.00;102628.63;4879659;29;20065;-47
2021/12/13 10:54:19;;;;;;;10.73;5.68;;;;;;;9.63;100.00;102638.72;4857735;29;20365;-46
2021/12/13 10:57:18;;;;;;;8.30;5.35;;;;;;;9.64;100.00;102632.22;4856047;29;20208;-49
2021/12/13 11:00:11;;;;;;;8.88;5.20;;;;;;;9.63;100.00;102622.41;4849574;29;20053;-49
2021/12/13 11:03:10;;;;;;;11.10;5.80;;;;;;;9.62;100.00;102620.75;4839608;29;20050;-52
2021/12/13 11:05:58;;;;;;;9.63;5.85;;;;;;;9.62;100.00;102631.63;4840799;29;20497;-49
2021/12/13 11:08:46;;;;;;;11.27;6.00;;;;;;;9.61;100.00;102627.22;4841320;29;20084;-45
2021/12/13 11:11:42;;;;;;;8.57;5.55;;;;;;;9.61;100.00;102629.94;4833640;29;20054;-47
2021/12/13 11:14:30;;;;;;;6.50;4.20;;;;;;;9.90;100.00;102616.78;4844203;29;21823;-45
2021/12/13 11:17:23;;;;;;;7.45;4.43;;;;;;;9.89;100.00;102610.53;4859267;29;20057;-48
2021/12/13 11:20:14;;;;;;;6.13;4.13;;;;;;;9.92;100.00;102614.69;4859443;29;20170;-48
2021/12/13 11:23:03;;;;;;;6.35;3.90;;;;;;;9.87;100.00;102617.25;4859261;29;20110;-47
2021/12/13 11:26:00;;;;;;;9.35;4.80;;;;;;;9.90;100.00;102619.53;4845098;29;20070;-50
2021/12/13 11:28:49;;;;;;;4.82;3.25;;;;;;;9.86;100.00;102621.00;4886645;29;20076;-47
2021/12/13 11:31:52;;;;;;;7.28;3.78;;;;;;;9.94;100.00;102620.75;4877889;29;20053;-47
2021/12/13 11:35:02;;;;;;;6.82;4.28;;;;;;;9.95;100.00;102622.41;4878905;29;20060;-47
2021/12/13 11:38:30;;;;;;;6.47;4.10;;;;;;;9.87;100.00;102619.97;4879536;29;20500;-48
2021/12/13 11:41:51;;;;;;;5.50;3.80;;;;;;;9.86;100.00;102621.84;4860965;29;20052;-48
2021/12/13 11:45:03;;;;;;;4.45;3.15;;;;;;;9.90;100.00;102614.06;4861381;29;20165;-47
2021/12/13 11:48:35;;;;;;;6.80;3.92;;;;;;;9.87;100.00;102609.91;4863704;29;20124;-47
2021/12/13 11:52:07;;;;;;;9.68;4.05;;;;;;;9.91;100.00;102613.00;4862501;29;20060;-47
2021/12/13 11:55:14;;;;;;;6.25;3.63;;;;;;;9.88;100.00;102616.19;4856166;29;20130;-48
2021/12/13 11:58:38;;;;;;;6.43;3.20;;;;;;;9.96;100.00;102605.88;4838058;29;20114;-48
2021/12/13 12:01:54;;;;;;;6.20;3.88;;;;;;;9.91;100.00;102602.97;4839366;29;20098;-46
2021/12/13 12:05:19;;;;;;;7.85;3.90;;;;;;;10.00;100.00;102601.63;4856497;29;20113;-49
2021/12/13 12:08:43;;;;;;;5.63;3.70;;;;;;;10.02;100.00;102604.13;4857989;29;20197;-47
2021/12/13 12:12:10;;;;;;;5.35;3.25;;;;;;;10.02;100.00;102598.69;4856407;29;20093;-48
2021/12/13 12:15:03;;;;;;;5.40;3.25;;;;;;;10.01;100.00;102595.16;4857953;29;20080;-45
2021/12/13 12:17:52;;;;;;;6.32;3.78;;;;;;;10.04;100.00;102602.03;4830014;29;20057;-49
2021/12/13 12:20:44;;;;;;;6.13;3.42;;;;;;;10.05;100.00;102597.41;4854922;29;20053;-44
2021/12/13 12:23:33;;;;;;;6.78;4.30;;;;;;;10.02;100.00;102599.53;4858206;29;20492;-48
2021/12/13 12:26:22;;;;;;;5.82;3.00;;;;;;;10.07;100.00;102595.31;4857125;29;20140;-49
2021/12/13 12:29:16;;;;;;;5.63;3.25;;;;;;;10.09;100.00;102604.09;4864209;29;20064;-48
2021/12/13 12:32:13;;;;;;;9.13;4.85;;;;;;;9.98;100.00;102605.63;4875775;29;20088;-48
2021/12/13 12:35:24;;;;;;;9.00;4.82;;;;;;;9.88;100.00;102602.56;4862656;29;20108;-50
2021/12/13 12:38:31;;;;;;;9.60;5.07;;;;;;;9.78;100.00;102598.44;4876225;29;20357;-49
2021/12/13 12:41:44;;;;;;;7.38;4.28;;;;;;;9.72;100.00;102603.94;4878212;29;20045;-50
2021/12/13 12:44:55;;;;;;;5.80;3.17;;;;;;;9.87;100.00;102601.72;4878798;29;20143;-49
2021/12/13 12:48:00;;;;;;;6.40;3.60;;;;;;;10.07;100.00;102604.31;4872102;29;20075;-47
2021/12/13 12:50:53;;;;;;;3.50;2.88;;;;;;;10.10;100.00;102590.28;4861765;29;20551;-49
2021/12/13 12:54:04;;;;;;;6.50;3.33;;;;;;;10.07;100.00;102601.59;4875548;29;20053;-52
2021/12/13 12:56:58;;;;;;;6.88;3.88;;;;;;;9.89;100.00;102601.53;4877720;29;20077;-50
2021/12/13 12:59:45;;;;;;;5.03;3.45;;;;;;;9.81;100.00;102614.34;4878562;29;20055;-50
2021/12/13 13:02:33;;;;;;;6.47;3.70;;;;;;;9.93;100.00;102608.19;4875699;29;20057;-46
2021/12/13 13:05:23;;;;;;;3.72;2.65;;;;;;;9.97;100.00;102604.81;4878160;29;20057;-51
2021/12/13 13:08:12;;;;;;;4.47;2.70;;;;;;;10.04;100.00;102602.03;4864058;29;20572;-48
2021/12/13 13:14:17;;;;;;;5.60;2.97;;;;;;;10.07;100.00;102600.75;4878984;29;20060;-51
2021/12/13 13:17:07;;;;;;;4.60;2.60;;;;;;;10.07;100.00;102607.03;4868309;29;20057;-50
2021/12/13 13:19:58;;;;;;;5.45;3.22;;;;;;;10.02;100.00;102599.53;4881943;29;20049;-52
2021/12/13 13:22:48;;;;;;;8.00;3.60;;;;;;;10.01;100.00;102592.41;4882256;29;20061;-48
2021/12/13 13:25:56;;;;;;;5.53;2.97;;;;;;;10.09;100.00;102598.66;4873913;29;20067;-49
2021/12/13 13:28:47;;;;;;;6.88;3.70;;;;;;;10.09;100.00;102598.66;4865345;29;20511;-53
2021/12/13 13:31:37;;;;;;;4.75;2.72;;;;;;;10.03;100.00;102600.38;4850847;29;20061;-48
2021/12/13 13:35:04;;;;;;;4.97;2.92;;;;;;;10.02;100.00;102598.69;4881258;29;20045;-48
2021/12/13 13:37:52;;;;;;;5.10;2.95;;;;;;;10.00;100.00;102600.81;4848726;29;20410;-46